sensor_id;sensor_type;location;lat;lon;timestamp;P1;durP1;ratioP1;P2;durP2;ratioP2
81306;SDS011;70775;50.846;3.224;2023-07-09T00:01:42;46.35;;;38.45;;
81306;SDS011;70775;50.846;3.224;2023-07-09T00:04:09;43.10;;;37.50;;
81306;SDS011;70775;50.846;3.224;2023-07-09T00:06:38;45.80;;;37.80;;
81306;SDS011;70775;50.846;3.224;2023-07-09T00:09:06;45.42;;;36.20;;
81306;SDS011;70775;50.846;3.224;2023-07-09T00:11:38;43.78;;;35.70;;
81306;SDS011;70775;50.846;3.224;2023-07-09T00:14:05;44.90;;;35.08;;
81306;SDS011;70775;50.846;3.224;2023-07-09T00:16:30;39.53;;;33.70;;
81306;SDS011;70775;50.846;3.224;2023-07-09T00:18:56;42.75;;;34.78;;
81306;SDS011;70775;50.846;3.224;2023-07-09T00:21:22;40.15;;;31.80;;
81306;SDS011;70775;50.846;3.224;2023-07-09T00:23:48;46.55;;;33.53;;
81306;SDS011;70775;50.846;3.224;2023-07-09T00:26:14;40.75;;;32.35;;
81306;SDS011;70775;50.846;3.224;2023-07-09T00:28:41;40.13;;;30.27;;
81306;SDS011;70775;50.846;3.224;2023-07-09T00:31:10;38.22;;;29.88;;
81306;SDS011;70775;50.846;3.224;2023-07-09T00:33:39;35.83;;;29.83;;
81306;SDS011;70775;50.846;3.224;2023-07-09T00:36:16;38.53;;;29.08;;
81306;SDS011;70775;50.846;3.224;2023-07-09T00:38:49;43.05;;;29.65;;
81306;SDS011;70775;50.846;3.224;2023-07-09T00:41:17;40.75;;;29.95;;
81306;SDS011;70775;50.846;3.224;2023-07-09T00:43:45;38.17;;;29.80;;
81306;SDS011;70775;50.846;3.224;2023-07-09T00:49:14;37.70;;;28.65;;
81306;SDS011;70775;50.846;3.224;2023-07-09T00:51:42;38.30;;;28.85;;
81306;SDS011;70775;50.846;3.224;2023-07-09T00:54:33;39.70;;;30.80;;
81306;SDS011;70775;50.846;3.224;2023-07-09T00:57:03;36.60;;;28.52;;
81306;SDS011;70775;50.846;3.224;2023-07-09T00:59:34;38.90;;;28.63;;
81306;SDS011;70775;50.846;3.224;2023-07-09T01:02:02;37.83;;;29.65;;
81306;SDS011;70775;50.846;3.224;2023-07-09T01:04:28;40.67;;;29.73;;
81306;SDS011;70775;50.846;3.224;2023-07-09T01:06:55;35.83;;;29.35;;
81306;SDS011;70775;50.846;3.224;2023-07-09T01:09:22;38.13;;;29.45;;
81306;SDS011;70775;50.846;3.224;2023-07-09T01:11:48;36.88;;;29.33;;
81306;SDS011;70775;50.846;3.224;2023-07-09T01:14:16;42.63;;;30.33;;
81306;SDS011;70775;50.846;3.224;2023-07-09T01:16:52;36.38;;;29.15;;
81306;SDS011;70775;50.846;3.224;2023-07-09T01:19:22;42.00;;;30.05;;
81306;SDS011;70775;50.846;3.224;2023-07-09T01:21:52;37.00;;;29.88;;
81306;SDS011;70775;50.846;3.224;2023-07-09T01:27:17;44.33;;;32.53;;
81306;SDS011;70775;50.846;3.224;2023-07-09T01:29:45;43.60;;;33.88;;
81306;SDS011;70775;50.846;3.224;2023-07-09T01:32:17;43.08;;;34.03;;
81306;SDS011;70775;50.846;3.224;2023-07-09T01:34:45;46.58;;;33.70;;
81306;SDS011;70775;50.846;3.224;2023-07-09T01:37:23;43.63;;;33.75;;
81306;SDS011;70775;50.846;3.224;2023-07-09T01:39:51;43.17;;;34.83;;
81306;SDS011;70775;50.846;3.224;2023-07-09T01:42:18;42.63;;;33.30;;
81306;SDS011;70775;50.846;3.224;2023-07-09T01:44:46;46.10;;;35.08;;
81306;SDS011;70775;50.846;3.224;2023-07-09T01:47:14;43.53;;;32.85;;
81306;SDS011;70775;50.846;3.224;2023-07-09T01:49:40;44.40;;;34.47;;
81306;SDS011;70775;50.846;3.224;2023-07-09T01:52:06;44.50;;;34.55;;
81306;SDS011;70775;50.846;3.224;2023-07-09T01:54:35;43.05;;;33.45;;
81306;SDS011;70775;50.846;3.224;2023-07-09T01:57:14;45.60;;;35.42;;
81306;SDS011;70775;50.846;3.224;2023-07-09T01:59:50;44.67;;;34.03;;
81306;SDS011;70775;50.846;3.224;2023-07-09T02:02:16;40.80;;;32.55;;
81306;SDS011;70775;50.846;3.224;2023-07-09T02:04:48;42.92;;;32.10;;
81306;SDS011;70775;50.846;3.224;2023-07-09T02:07:16;42.17;;;32.83;;
81306;SDS011;70775;50.846;3.224;2023-07-09T02:09:43;41.22;;;32.33;;
81306;SDS011;70775;50.846;3.224;2023-07-09T02:12:09;45.50;;;34.88;;
81306;SDS011;70775;50.846;3.224;2023-07-09T02:14:36;40.13;;;33.00;;
81306;SDS011;70775;50.846;3.224;2023-07-09T02:17:02;48.65;;;34.88;;
81306;SDS011;70775;50.846;3.224;2023-07-09T02:19:28;47.33;;;34.00;;
81306;SDS011;70775;50.846;3.224;2023-07-09T02:21:55;42.50;;;33.20;;
81306;SDS011;70775;50.846;3.224;2023-07-09T02:24:21;44.95;;;33.30;;
81306;SDS011;70775;50.846;3.224;2023-07-09T02:26:50;50.28;;;35.88;;
81306;SDS011;70775;50.846;3.224;2023-07-09T02:29:16;42.80;;;33.40;;
81306;SDS011;70775;50.846;3.224;2023-07-09T02:31:42;42.50;;;33.70;;
81306;SDS011;70775;50.846;3.224;2023-07-09T02:34:08;44.83;;;33.03;;
81306;SDS011;70775;50.846;3.224;2023-07-09T02:36:34;46.95;;;36.17;;
81306;SDS011;70775;50.846;3.224;2023-07-09T02:38:59;45.45;;;35.17;;
81306;SDS011;70775;50.846;3.224;2023-07-09T02:41:25;48.80;;;36.45;;
81306;SDS011;70775;50.846;3.224;2023-07-09T02:43:51;47.00;;;33.67;;
81306;SDS011;70775;50.846;3.224;2023-07-09T02:46:16;46.05;;;33.65;;
81306;SDS011;70775;50.846;3.224;2023-07-09T02:48:42;44.50;;;32.65;;
81306;SDS011;70775;50.846;3.224;2023-07-09T02:51:08;46.50;;;34.10;;
81306;SDS011;70775;50.846;3.224;2023-07-09T02:53:34;47.13;;;34.38;;
81306;SDS011;70775;50.846;3.224;2023-07-09T02:55:59;44.45;;;33.33;;
81306;SDS011;70775;50.846;3.224;2023-07-09T02:58:25;47.03;;;34.58;;
81306;SDS011;70775;50.846;3.224;2023-07-09T03:00:51;45.15;;;33.63;;
81306;SDS011;70775;50.846;3.224;2023-07-09T03:03:18;45.63;;;33.35;;
81306;SDS011;70775;50.846;3.224;2023-07-09T03:05:44;46.45;;;33.08;;
81306;SDS011;70775;50.846;3.224;2023-07-09T03:08:10;45.88;;;33.75;;
81306;SDS011;70775;50.846;3.224;2023-07-09T03:10:37;44.28;;;34.53;;
81306;SDS011;70775;50.846;3.224;2023-07-09T03:13:03;48.15;;;34.00;;
81306;SDS011;70775;50.846;3.224;2023-07-09T03:15:28;59.63;;;35.17;;
81306;SDS011;70775;50.846;3.224;2023-07-09T03:17:54;47.88;;;35.97;;
81306;SDS011;70775;50.846;3.224;2023-07-09T03:20:19;51.35;;;35.70;;
81306;SDS011;70775;50.846;3.224;2023-07-09T03:22:45;49.78;;;36.00;;
81306;SDS011;70775;50.846;3.224;2023-07-09T03:25:11;47.70;;;37.30;;
81306;SDS011;70775;50.846;3.224;2023-07-09T03:27:36;53.58;;;38.20;;
81306;SDS011;70775;50.846;3.224;2023-07-09T03:30:02;51.75;;;38.65;;
81306;SDS011;70775;50.846;3.224;2023-07-09T03:32:27;56.03;;;40.38;;
81306;SDS011;70775;50.846;3.224;2023-07-09T03:34:53;54.53;;;40.17;;
81306;SDS011;70775;50.846;3.224;2023-07-09T03:37:19;54.20;;;38.72;;
81306;SDS011;70775;50.846;3.224;2023-07-09T03:39:47;53.92;;;39.55;;
81306;SDS011;70775;50.846;3.224;2023-07-09T03:42:13;57.47;;;40.63;;
81306;SDS011;70775;50.846;3.224;2023-07-09T03:44:39;53.45;;;39.90;;
81306;SDS011;70775;50.846;3.224;2023-07-09T03:47:05;55.60;;;40.45;;
81306;SDS011;70775;50.846;3.224;2023-07-09T03:49:32;54.15;;;40.58;;
81306;SDS011;70775;50.846;3.224;2023-07-09T03:51:58;55.15;;;40.83;;
81306;SDS011;70775;50.846;3.224;2023-07-09T03:54:24;58.95;;;41.38;;
81306;SDS011;70775;50.846;3.224;2023-07-09T03:56:49;57.40;;;40.28;;
81306;SDS011;70775;50.846;3.224;2023-07-09T03:59:15;59.95;;;42.22;;
81306;SDS011;70775;50.846;3.224;2023-07-09T04:01:40;54.47;;;40.47;;
81306;SDS011;70775;50.846;3.224;2023-07-09T04:04:11;61.45;;;42.97;;
81306;SDS011;70775;50.846;3.224;2023-07-09T04:06:37;50.92;;;39.90;;
81306;SDS011;70775;50.846;3.224;2023-07-09T04:09:04;54.72;;;41.22;;
81306;SDS011;70775;50.846;3.224;2023-07-09T04:11:30;57.00;;;40.95;;
81306;SDS011;70775;50.846;3.224;2023-07-09T04:13:55;52.55;;;40.95;;
81306;SDS011;70775;50.846;3.224;2023-07-09T04:16:21;55.55;;;39.78;;
81306;SDS011;70775;50.846;3.224;2023-07-09T04:18:46;54.28;;;40.70;;
81306;SDS011;70775;50.846;3.224;2023-07-09T04:21:12;53.05;;;39.30;;
81306;SDS011;70775;50.846;3.224;2023-07-09T04:23:38;51.72;;;38.67;;
81306;SDS011;70775;50.846;3.224;2023-07-09T04:26:03;53.47;;;40.78;;
81306;SDS011;70775;50.846;3.224;2023-07-09T04:28:29;54.20;;;38.05;;
81306;SDS011;70775;50.846;3.224;2023-07-09T04:30:56;49.55;;;37.67;;
81306;SDS011;70775;50.846;3.224;2023-07-09T04:33:21;51.40;;;37.75;;
81306;SDS011;70775;50.846;3.224;2023-07-09T04:35:47;55.53;;;41.10;;
81306;SDS011;70775;50.846;3.224;2023-07-09T04:38:14;53.10;;;39.97;;
81306;SDS011;70775;50.846;3.224;2023-07-09T04:40:40;52.00;;;39.20;;
81306;SDS011;70775;50.846;3.224;2023-07-09T04:43:06;57.30;;;41.42;;
81306;SDS011;70775;50.846;3.224;2023-07-09T04:45:31;57.70;;;40.28;;
81306;SDS011;70775;50.846;3.224;2023-07-09T04:47:57;54.05;;;38.97;;
81306;SDS011;70775;50.846;3.224;2023-07-09T04:50:23;54.80;;;38.85;;
81306;SDS011;70775;50.846;3.224;2023-07-09T04:52:48;50.65;;;36.70;;
81306;SDS011;70775;50.846;3.224;2023-07-09T04:55:14;48.70;;;35.33;;
81306;SDS011;70775;50.846;3.224;2023-07-09T04:57:39;47.35;;;35.70;;
81306;SDS011;70775;50.846;3.224;2023-07-09T05:00:05;49.08;;;35.55;;
81306;SDS011;70775;50.846;3.224;2023-07-09T05:02:31;46.45;;;34.13;;
81306;SDS011;70775;50.846;3.224;2023-07-09T05:04:58;44.65;;;33.28;;
81306;SDS011;70775;50.846;3.224;2023-07-09T05:07:23;44.95;;;33.00;;
81306;SDS011;70775;50.846;3.224;2023-07-09T05:09:49;44.17;;;33.08;;
81306;SDS011;70775;50.846;3.224;2023-07-09T05:12:15;46.45;;;33.30;;
81306;SDS011;70775;50.846;3.224;2023-07-09T05:14:40;46.90;;;32.47;;
81306;SDS011;70775;50.846;3.224;2023-07-09T05:17:06;45.22;;;32.35;;
81306;SDS011;70775;50.846;3.224;2023-07-09T05:19:33;39.47;;;29.02;;
81306;SDS011;70775;50.846;3.224;2023-07-09T05:21:58;38.40;;;29.55;;
81306;SDS011;70775;50.846;3.224;2023-07-09T05:24:24;35.50;;;25.42;;
81306;SDS011;70775;50.846;3.224;2023-07-09T05:26:50;36.25;;;26.10;;
81306;SDS011;70775;50.846;3.224;2023-07-09T05:29:15;37.42;;;25.55;;
81306;SDS011;70775;50.846;3.224;2023-07-09T05:31:41;35.83;;;25.05;;
81306;SDS011;70775;50.846;3.224;2023-07-09T05:34:07;33.10;;;24.10;;
81306;SDS011;70775;50.846;3.224;2023-07-09T05:36:33;28.63;;;20.33;;
81306;SDS011;70775;50.846;3.224;2023-07-09T05:38:59;28.38;;;20.88;;
81306;SDS011;70775;50.846;3.224;2023-07-09T05:41:25;29.55;;;21.15;;
81306;SDS011;70775;50.846;3.224;2023-07-09T05:43:51;28.25;;;20.45;;
81306;SDS011;70775;50.846;3.224;2023-07-09T05:46:17;26.63;;;19.92;;
81306;SDS011;70775;50.846;3.224;2023-07-09T05:48:44;27.30;;;19.65;;
81306;SDS011;70775;50.846;3.224;2023-07-09T05:51:09;25.60;;;19.50;;
81306;SDS011;70775;50.846;3.224;2023-07-09T05:53:35;24.05;;;17.80;;
81306;SDS011;70775;50.846;3.224;2023-07-09T05:56:01;25.67;;;17.08;;
81306;SDS011;70775;50.846;3.224;2023-07-09T05:58:26;25.30;;;16.50;;
81306;SDS011;70775;50.846;3.224;2023-07-09T06:00:53;23.48;;;17.75;;
81306;SDS011;70775;50.846;3.224;2023-07-09T06:03:19;22.60;;;16.83;;
81306;SDS011;70775;50.846;3.224;2023-07-09T06:05:46;23.50;;;16.65;;
81306;SDS011;70775;50.846;3.224;2023-07-09T06:08:15;22.50;;;16.17;;
81306;SDS011;70775;50.846;3.224;2023-07-09T06:10:49;27.65;;;18.35;;
81306;SDS011;70775;50.846;3.224;2023-07-09T06:13:16;25.30;;;16.27;;
81306;SDS011;70775;50.846;3.224;2023-07-09T06:15:43;23.50;;;17.20;;
81306;SDS011;70775;50.846;3.224;2023-07-09T06:18:09;22.83;;;15.88;;
81306;SDS011;70775;50.846;3.224;2023-07-09T06:20:34;24.08;;;15.82;;
81306;SDS011;70775;50.846;3.224;2023-07-09T06:23:00;21.52;;;16.17;;
81306;SDS011;70775;50.846;3.224;2023-07-09T06:25:25;22.30;;;14.50;;
81306;SDS011;70775;50.846;3.224;2023-07-09T06:27:51;21.30;;;14.43;;
81306;SDS011;70775;50.846;3.224;2023-07-09T06:30:17;20.00;;;14.10;;
81306;SDS011;70775;50.846;3.224;2023-07-09T06:32:44;18.80;;;13.43;;
81306;SDS011;70775;50.846;3.224;2023-07-09T06:35:10;20.10;;;13.35;;
81306;SDS011;70775;50.846;3.224;2023-07-09T06:37:36;18.98;;;13.27;;
81306;SDS011;70775;50.846;3.224;2023-07-09T06:40:02;20.25;;;12.60;;
81306;SDS011;70775;50.846;3.224;2023-07-09T06:42:29;18.40;;;12.15;;
81306;SDS011;70775;50.846;3.224;2023-07-09T06:44:55;15.15;;;10.27;;
81306;SDS011;70775;50.846;3.224;2023-07-09T06:47:21;17.35;;;11.18;;
81306;SDS011;70775;50.846;3.224;2023-07-09T06:49:46;16.80;;;11.25;;
81306;SDS011;70775;50.846;3.224;2023-07-09T06:52:12;17.38;;;10.88;;
81306;SDS011;70775;50.846;3.224;2023-07-09T06:54:38;14.07;;;9.15;;
81306;SDS011;70775;50.846;3.224;2023-07-09T06:57:03;15.85;;;10.57;;
81306;SDS011;70775;50.846;3.224;2023-07-09T06:59:29;15.15;;;11.25;;
81306;SDS011;70775;50.846;3.224;2023-07-09T07:01:55;17.27;;;11.15;;
81306;SDS011;70775;50.846;3.224;2023-07-09T07:04:20;18.42;;;11.93;;
81306;SDS011;70775;50.846;3.224;2023-07-09T07:06:46;15.23;;;10.13;;
81306;SDS011;70775;50.846;3.224;2023-07-09T07:09:13;14.05;;;9.50;;
81306;SDS011;70775;50.846;3.224;2023-07-09T07:11:38;16.15;;;9.93;;
81306;SDS011;70775;50.846;3.224;2023-07-09T07:14:04;16.13;;;10.23;;
81306;SDS011;70775;50.846;3.224;2023-07-09T07:16:29;14.65;;;9.52;;
81306;SDS011;70775;50.846;3.224;2023-07-09T07:18:55;15.48;;;9.07;;
81306;SDS011;70775;50.846;3.224;2023-07-09T07:21:21;16.25;;;9.30;;
81306;SDS011;70775;50.846;3.224;2023-07-09T07:23:46;13.55;;;9.07;;
81306;SDS011;70775;50.846;3.224;2023-07-09T07:26:12;13.77;;;8.43;;
81306;SDS011;70775;50.846;3.224;2023-07-09T07:28:38;17.42;;;9.23;;
81306;SDS011;70775;50.846;3.224;2023-07-09T07:31:05;12.82;;;8.25;;
81306;SDS011;70775;50.846;3.224;2023-07-09T07:33:32;13.13;;;8.35;;
81306;SDS011;70775;50.846;3.224;2023-07-09T07:35:58;13.48;;;8.32;;
81306;SDS011;70775;50.846;3.224;2023-07-09T07:38:24;14.38;;;8.77;;
81306;SDS011;70775;50.846;3.224;2023-07-09T07:40:49;12.02;;;8.43;;
81306;SDS011;70775;50.846;3.224;2023-07-09T07:43:15;14.73;;;7.82;;
81306;SDS011;70775;50.846;3.224;2023-07-09T07:45:41;12.68;;;8.02;;
81306;SDS011;70775;50.846;3.224;2023-07-09T07:48:08;14.32;;;7.75;;
81306;SDS011;70775;50.846;3.224;2023-07-09T07:50:33;12.60;;;7.80;;
81306;SDS011;70775;50.846;3.224;2023-07-09T07:52:59;14.65;;;7.60;;
81306;SDS011;70775;50.846;3.224;2023-07-09T07:55:25;11.55;;;8.07;;
81306;SDS011;70775;50.846;3.224;2023-07-09T07:57:50;12.55;;;7.68;;
81306;SDS011;70775;50.846;3.224;2023-07-09T08:00:16;12.93;;;7.70;;
81306;SDS011;70775;50.846;3.224;2023-07-09T08:02:42;14.70;;;7.20;;
81306;SDS011;70775;50.846;3.224;2023-07-09T08:05:08;13.60;;;7.75;;
81306;SDS011;70775;50.846;3.224;2023-07-09T08:07:34;12.07;;;7.68;;
81306;SDS011;70775;50.846;3.224;2023-07-09T08:09:59;11.55;;;7.22;;
81306;SDS011;70775;50.846;3.224;2023-07-09T08:12:25;11.25;;;7.05;;
81306;SDS011;70775;50.846;3.224;2023-07-09T08:14:50;14.88;;;7.45;;
81306;SDS011;70775;50.846;3.224;2023-07-09T08:17:16;9.77;;;6.85;;
81306;SDS011;70775;50.846;3.224;2023-07-09T08:19:46;15.38;;;7.45;;
81306;SDS011;70775;50.846;3.224;2023-07-09T08:22:13;12.43;;;7.32;;
81306;SDS011;70775;50.846;3.224;2023-07-09T08:24:40;13.30;;;7.75;;
81306;SDS011;70775;50.846;3.224;2023-07-09T08:27:06;12.05;;;6.78;;
81306;SDS011;70775;50.846;3.224;2023-07-09T08:29:32;10.88;;;7.20;;
81306;SDS011;70775;50.846;3.224;2023-07-09T08:31:58;11.85;;;6.50;;
81306;SDS011;70775;50.846;3.224;2023-07-09T08:34:24;9.52;;;6.40;;
81306;SDS011;70775;50.846;3.224;2023-07-09T08:36:49;12.35;;;6.90;;
81306;SDS011;70775;50.846;3.224;2023-07-09T08:39:15;11.00;;;7.15;;
81306;SDS011;70775;50.846;3.224;2023-07-09T08:41:43;9.43;;;5.82;;
81306;SDS011;70775;50.846;3.224;2023-07-09T08:49:37;11.45;;;6.30;;
81306;SDS011;70775;50.846;3.224;2023-07-09T08:52:12;10.45;;;5.25;;
81306;SDS011;70775;50.846;3.224;2023-07-09T08:54:50;9.25;;;4.97;;
81306;SDS011;70775;50.846;3.224;2023-07-09T08:57:21;8.52;;;4.50;;
81306;SDS011;70775;50.846;3.224;2023-07-09T08:59:51;7.28;;;4.88;;
81306;SDS011;70775;50.846;3.224;2023-07-09T09:02:35;12.25;;;5.82;;
81306;SDS011;70775;50.846;3.224;2023-07-09T09:05:04;11.45;;;6.18;;
81306;SDS011;70775;50.846;3.224;2023-07-09T09:10:17;11.85;;;6.50;;
81306;SDS011;70775;50.846;3.224;2023-07-09T09:15:38;11.05;;;5.80;;
81306;SDS011;70775;50.846;3.224;2023-07-09T09:21:03;10.75;;;5.70;;
81306;SDS011;70775;50.846;3.224;2023-07-09T09:23:53;13.88;;;5.53;;
81306;SDS011;70775;50.846;3.224;2023-07-09T09:26:26;11.65;;;5.93;;
81306;SDS011;70775;50.846;3.224;2023-07-09T09:28:55;10.82;;;6.57;;
81306;SDS011;70775;50.846;3.224;2023-07-09T09:31:23;11.20;;;6.43;;
81306;SDS011;70775;50.846;3.224;2023-07-09T09:33:51;18.35;;;6.30;;
81306;SDS011;70775;50.846;3.224;2023-07-09T09:36:21;11.60;;;5.88;;
81306;SDS011;70775;50.846;3.224;2023-07-09T09:38:49;11.15;;;5.90;;
81306;SDS011;70775;50.846;3.224;2023-07-09T09:41:29;11.98;;;5.93;;
81306;SDS011;70775;50.846;3.224;2023-07-09T09:44:02;8.13;;;5.45;;
81306;SDS011;70775;50.846;3.224;2023-07-09T09:46:31;8.50;;;5.00;;
81306;SDS011;70775;50.846;3.224;2023-07-09T09:49:01;14.25;;;5.68;;
81306;SDS011;70775;50.846;3.224;2023-07-09T09:51:28;9.68;;;5.10;;
81306;SDS011;70775;50.846;3.224;2023-07-09T09:53:58;11.60;;;5.88;;
81306;SDS011;70775;50.846;3.224;2023-07-09T09:56:27;10.00;;;6.00;;
81306;SDS011;70775;50.846;3.224;2023-07-09T09:58:56;9.50;;;6.20;;
81306;SDS011;70775;50.846;3.224;2023-07-09T10:01:29;13.00;;;6.40;;
81306;SDS011;70775;50.846;3.224;2023-07-09T10:03:58;11.52;;;6.13;;
81306;SDS011;70775;50.846;3.224;2023-07-09T10:11:46;12.48;;;7.05;;
81306;SDS011;70775;50.846;3.224;2023-07-09T10:14:25;12.60;;;7.80;;
81306;SDS011;70775;50.846;3.224;2023-07-09T10:17:05;13.65;;;9.05;;
81306;SDS011;70775;50.846;3.224;2023-07-09T10:28:03;15.35;;;10.88;;
81306;SDS011;70775;50.846;3.224;2023-07-09T10:36:23;21.75;;;13.23;;
81306;SDS011;70775;50.846;3.224;2023-07-09T10:41:38;20.35;;;12.75;;
81306;SDS011;70775;50.846;3.224;2023-07-09T10:46:54;18.63;;;12.77;;
81306;SDS011;70775;50.846;3.224;2023-07-09T10:49:30;16.52;;;12.52;;
81306;SDS011;70775;50.846;3.224;2023-07-09T10:52:06;17.20;;;12.13;;
81306;SDS011;70775;50.846;3.224;2023-07-09T11:00:17;15.20;;;11.00;;
81306;SDS011;70775;50.846;3.224;2023-07-09T11:02:45;17.98;;;11.93;;
81306;SDS011;70775;50.846;3.224;2023-07-09T11:05:17;18.92;;;12.20;;
81306;SDS011;70775;50.846;3.224;2023-07-09T11:12:55;16.65;;;10.73;;
81306;SDS011;70775;50.846;3.224;2023-07-09T11:15:30;18.52;;;10.75;;
81306;SDS011;70775;50.846;3.224;2023-07-09T11:17:59;15.27;;;9.80;;
81306;SDS011;70775;50.846;3.224;2023-07-09T11:20:31;16.17;;;9.60;;
81306;SDS011;70775;50.846;3.224;2023-07-09T11:23:06;15.68;;;11.07;;
81306;SDS011;70775;50.846;3.224;2023-07-09T11:25:44;14.95;;;9.85;;
81306;SDS011;70775;50.846;3.224;2023-07-09T11:28:16;19.83;;;9.80;;
81306;SDS011;70775;50.846;3.224;2023-07-09T11:31:17;13.43;;;9.00;;
81306;SDS011;70775;50.846;3.224;2023-07-09T11:33:48;17.77;;;10.57;;
81306;SDS011;70775;50.846;3.224;2023-07-09T11:36:25;14.85;;;8.15;;
81306;SDS011;70775;50.846;3.224;2023-07-09T11:38:52;14.40;;;8.43;;
81306;SDS011;70775;50.846;3.224;2023-07-09T11:41:33;16.73;;;9.32;;
81306;SDS011;70775;50.846;3.224;2023-07-09T11:44:16;16.77;;;8.77;;
81306;SDS011;70775;50.846;3.224;2023-07-09T11:47:27;14.60;;;8.10;;
81306;SDS011;70775;50.846;3.224;2023-07-09T11:52:24;15.23;;;9.45;;
81306;SDS011;70775;50.846;3.224;2023-07-09T11:57:56;13.98;;;9.70;;
81306;SDS011;70775;50.846;3.224;2023-07-09T12:02:59;18.13;;;10.23;;
81306;SDS011;70775;50.846;3.224;2023-07-09T12:05:26;21.70;;;9.80;;
81306;SDS011;70775;50.846;3.224;2023-07-09T12:07:53;13.77;;;9.52;;
81306;SDS011;70775;50.846;3.224;2023-07-09T12:10:22;14.77;;;9.52;;
81306;SDS011;70775;50.846;3.224;2023-07-09T12:12:57;13.70;;;8.88;;
81306;SDS011;70775;50.846;3.224;2023-07-09T12:15:25;15.25;;;9.70;;
81306;SDS011;70775;50.846;3.224;2023-07-09T12:17:59;15.30;;;10.30;;
81306;SDS011;70775;50.846;3.224;2023-07-09T12:20:29;15.82;;;9.30;;
81306;SDS011;70775;50.846;3.224;2023-07-09T12:22:56;13.43;;;9.23;;
81306;SDS011;70775;50.846;3.224;2023-07-09T12:25:23;12.73;;;8.48;;
81306;SDS011;70775;50.846;3.224;2023-07-09T12:27:51;11.93;;;7.88;;
81306;SDS011;70775;50.846;3.224;2023-07-09T12:30:18;14.32;;;7.90;;
81306;SDS011;70775;50.846;3.224;2023-07-09T12:32:46;14.05;;;8.05;;
81306;SDS011;70775;50.846;3.224;2023-07-09T12:35:14;13.20;;;8.32;;
81306;SDS011;70775;50.846;3.224;2023-07-09T12:37:41;14.32;;;8.63;;
81306;SDS011;70775;50.846;3.224;2023-07-09T12:40:30;11.02;;;7.28;;
81306;SDS011;70775;50.846;3.224;2023-07-09T12:42:56;10.48;;;7.68;;
81306;SDS011;70775;50.846;3.224;2023-07-09T12:45:22;16.23;;;9.32;;
81306;SDS011;70775;50.846;3.224;2023-07-09T12:47:49;15.45;;;8.70;;
81306;SDS011;70775;50.846;3.224;2023-07-09T12:50:19;18.75;;;11.00;;
81306;SDS011;70775;50.846;3.224;2023-07-09T12:53:01;17.08;;;11.63;;
81306;SDS011;70775;50.846;3.224;2023-07-09T12:55:28;12.85;;;8.13;;
81306;SDS011;70775;50.846;3.224;2023-07-09T12:58:02;11.55;;;7.10;;
81306;SDS011;70775;50.846;3.224;2023-07-09T13:00:31;12.02;;;7.32;;
81306;SDS011;70775;50.846;3.224;2023-07-09T13:02:57;10.75;;;7.22;;
81306;SDS011;70775;50.846;3.224;2023-07-09T13:05:24;12.00;;;6.93;;
81306;SDS011;70775;50.846;3.224;2023-07-09T13:07:57;10.82;;;6.80;;
81306;SDS011;70775;50.846;3.224;2023-07-09T13:12:56;12.02;;;8.07;;
81306;SDS011;70775;50.846;3.224;2023-07-09T13:15:27;15.40;;;9.43;;
81306;SDS011;70775;50.846;3.224;2023-07-09T13:18:14;15.18;;;10.02;;
81306;SDS011;70775;50.846;3.224;2023-07-09T13:20:44;13.13;;;8.48;;
81306;SDS011;70775;50.846;3.224;2023-07-09T13:23:20;13.32;;;7.43;;
81306;SDS011;70775;50.846;3.224;2023-07-09T13:25:49;11.88;;;7.47;;
81306;SDS011;70775;50.846;3.224;2023-07-09T13:28:22;13.25;;;7.18;;
81306;SDS011;70775;50.846;3.224;2023-07-09T13:30:56;13.95;;;7.22;;
81306;SDS011;70775;50.846;3.224;2023-07-09T13:33:24;13.45;;;7.10;;
81306;SDS011;70775;50.846;3.224;2023-07-09T13:35:51;12.15;;;8.35;;
81306;SDS011;70775;50.846;3.224;2023-07-09T13:38:19;11.13;;;6.78;;
81306;SDS011;70775;50.846;3.224;2023-07-09T13:40:47;13.13;;;8.23;;
81306;SDS011;70775;50.846;3.224;2023-07-09T13:43:15;11.90;;;6.97;;
81306;SDS011;70775;50.846;3.224;2023-07-09T13:45:46;10.88;;;7.15;;
81306;SDS011;70775;50.846;3.224;2023-07-09T13:48:15;14.27;;;8.10;;
81306;SDS011;70775;50.846;3.224;2023-07-09T13:50:43;13.55;;;8.18;;
81306;SDS011;70775;50.846;3.224;2023-07-09T13:53:17;14.05;;;8.30;;
81306;SDS011;70775;50.846;3.224;2023-07-09T13:55:44;12.70;;;7.90;;
81306;SDS011;70775;50.846;3.224;2023-07-09T13:58:11;12.60;;;7.38;;
81306;SDS011;70775;50.846;3.224;2023-07-09T14:00:39;11.93;;;7.78;;
81306;SDS011;70775;50.846;3.224;2023-07-09T14:03:14;14.80;;;7.90;;
81306;SDS011;70775;50.846;3.224;2023-07-09T14:05:41;14.40;;;8.43;;
81306;SDS011;70775;50.846;3.224;2023-07-09T14:08:07;12.10;;;6.47;;
81306;SDS011;70775;50.846;3.224;2023-07-09T14:10:34;11.02;;;7.00;;
81306;SDS011;70775;50.846;3.224;2023-07-09T14:13:00;10.93;;;6.30;;
81306;SDS011;70775;50.846;3.224;2023-07-09T14:15:27;10.52;;;5.85;;
81306;SDS011;70775;50.846;3.224;2023-07-09T14:17:53;12.38;;;6.63;;
81306;SDS011;70775;50.846;3.224;2023-07-09T14:20:21;14.55;;;7.80;;
81306;SDS011;70775;50.846;3.224;2023-07-09T14:22:48;8.68;;;5.15;;
81306;SDS011;70775;50.846;3.224;2023-07-09T14:25:19;10.10;;;5.60;;
81306;SDS011;70775;50.846;3.224;2023-07-09T14:27:45;11.63;;;5.97;;
81306;SDS011;70775;50.846;3.224;2023-07-09T14:30:15;10.35;;;5.50;;
81306;SDS011;70775;50.846;3.224;2023-07-09T14:32:48;9.70;;;5.22;;
81306;SDS011;70775;50.846;3.224;2023-07-09T14:35:20;8.15;;;4.63;;
81306;SDS011;70775;50.846;3.224;2023-07-09T14:37:48;7.75;;;4.10;;
81306;SDS011;70775;50.846;3.224;2023-07-09T14:40:15;7.65;;;3.75;;
81306;SDS011;70775;50.846;3.224;2023-07-09T14:42:42;6.85;;;3.38;;
81306;SDS011;70775;50.846;3.224;2023-07-09T14:45:16;8.85;;;3.63;;
81306;SDS011;70775;50.846;3.224;2023-07-09T14:47:48;8.82;;;4.25;;
81306;SDS011;70775;50.846;3.224;2023-07-09T14:50:16;8.43;;;4.20;;
81306;SDS011;70775;50.846;3.224;2023-07-09T14:52:42;8.18;;;3.80;;
81306;SDS011;70775;50.846;3.224;2023-07-09T14:55:13;10.02;;;4.22;;
81306;SDS011;70775;50.846;3.224;2023-07-09T14:57:40;7.32;;;3.67;;
81306;SDS011;70775;50.846;3.224;2023-07-09T15:00:06;8.27;;;4.10;;
81306;SDS011;70775;50.846;3.224;2023-07-09T15:02:37;9.77;;;3.40;;
81306;SDS011;70775;50.846;3.224;2023-07-09T15:05:15;8.20;;;3.58;;
81306;SDS011;70775;50.846;3.224;2023-07-09T15:07:43;8.57;;;4.10;;
81306;SDS011;70775;50.846;3.224;2023-07-09T15:10:43;8.40;;;3.90;;
81306;SDS011;70775;50.846;3.224;2023-07-09T15:13:02;9.30;;;3.78;;
81306;SDS011;70775;50.846;3.224;2023-07-09T15:15:29;6.43;;;3.28;;
81306;SDS011;70775;50.846;3.224;2023-07-09T15:17:56;10.73;;;3.75;;
81306;SDS011;70775;50.846;3.224;2023-07-09T15:20:26;8.85;;;3.75;;
81306;SDS011;70775;50.846;3.224;2023-07-09T15:22:54;7.03;;;3.08;;
81306;SDS011;70775;50.846;3.224;2023-07-09T15:25:26;5.10;;;2.63;;
81306;SDS011;70775;50.846;3.224;2023-07-09T15:27:53;6.57;;;2.83;;
81306;SDS011;70775;50.846;3.224;2023-07-09T15:30:22;7.75;;;2.60;;
81306;SDS011;70775;50.846;3.224;2023-07-09T15:32:49;6.28;;;1.85;;
81306;SDS011;70775;50.846;3.224;2023-07-09T15:35:16;5.35;;;2.20;;
81306;SDS011;70775;50.846;3.224;2023-07-09T15:37:45;6.40;;;2.13;;
81306;SDS011;70775;50.846;3.224;2023-07-09T15:40:26;4.13;;;1.80;;
81306;SDS011;70775;50.846;3.224;2023-07-09T15:42:58;6.13;;;2.05;;